sensor_id;sensor_type;location;lat;lon;timestamp;pressure;altitude;pressure_sealevel;temperature;humidity
60345;BME280;46188;52.324;8.032;2022-11-03T00:00:54;100501.38;;;9.98;80.86
60345;BME280;46188;52.324;8.032;2022-11-03T00:03:20;100504.97;;;10.04;81.27
60345;BME280;46188;52.324;8.032;2022-11-03T00:05:45;100496.06;;;9.95;81.56
60345;BME280;46188;52.324;8.032;2022-11-03T00:08:33;100494.34;;;9.97;81.37
60345;BME280;46188;52.324;8.032;2022-11-03T00:11:25;100487.38;;;10.00;81.79
60345;BME280;46188;52.324;8.032;2022-11-03T00:13:50;100487.38;;;10.03;81.63
60345;BME280;46188;52.324;8.032;2022-11-03T00:16:15;100481.25;;;10.04;81.24
60345;BME280;46188;52.324;8.032;2022-11-03T00:18:41;100485.66;;;10.03;81.68
60345;BME280;46188;52.324;8.032;2022-11-03T00:21:08;100481.16;;;9.96;81.95
60345;BME280;46188;52.324;8.032;2022-11-03T00:23:37;100478.53;;;9.97;82.19
60345;BME280;46188;52.324;8.032;2022-11-03T00:26:12;100473.19;;;9.90;82.38
60345;BME280;46188;52.324;8.032;2022-11-03T00:28:42;100466.19;;;9.92;82.62
60345;BME280;46188;52.324;8.032;2022-11-03T00:31:10;100469.75;;;9.97;82.14
60345;BME280;46188;52.324;8.032;2022-11-03T00:33:37;100463.66;;;10.01;82.00
60345;BME280;46188;52.324;8.032;2022-11-03T00:36:04;100462.81;;;10.02;82.37
60345;BME280;46188;52.324;8.032;2022-11-03T00:38:30;100462.81;;;10.02;82.58
60345;BME280;46188;52.324;8.032;2022-11-03T00:41:00;100465.47;;;10.04;82.52
60345;BME280;46188;52.324;8.032;2022-11-03T00:43:27;100456.72;;;10.05;82.08
60345;BME280;46188;52.324;8.032;2022-11-03T00:45:54;100453.16;;;10.04;82.09
60345;BME280;46188;52.324;8.032;2022-11-03T00:48:20;100455.88;;;10.09;82.29
60345;BME280;46188;52.324;8.032;2022-11-03T00:51:11;100462.97;;;10.13;81.86
60345;BME280;46188;52.324;8.032;2022-11-03T00:53:43;100458.53;;;10.12;82.06
60345;BME280;46188;52.324;8.032;2022-11-03T00:56:11;100464.72;;;10.14;81.31
60345;BME280;46188;52.324;8.032;2022-11-03T00:58:41;100463.91;;;10.18;81.78
60345;BME280;46188;52.324;8.032;2022-11-03T01:01:12;100460.38;;;10.19;81.73
60345;BME280;46188;52.324;8.032;2022-11-03T01:03:39;100455.97;;;10.16;81.62
60345;BME280;46188;52.324;8.032;2022-11-03T01:06:08;100457.69;;;10.16;81.64
60345;BME280;46188;52.324;8.032;2022-11-03T01:08:54;100447.16;;;10.13;81.90
60345;BME280;46188;52.324;8.032;2022-11-03T01:11:22;100448.00;;;10.10;81.66
60345;BME280;46188;52.324;8.032;2022-11-03T01:14:08;100451.50;;;10.11;81.80
60345;BME280;46188;52.324;8.032;2022-11-03T01:16:34;100451.41;;;10.02;82.26
60345;BME280;46188;52.324;8.032;2022-11-03T01:18:59;100459.31;;;10.03;82.26
60345;BME280;46188;52.324;8.032;2022-11-03T01:21:25;100454.06;;;10.03;82.25
60345;BME280;46188;52.324;8.032;2022-11-03T01:23:50;100460.25;;;10.07;81.82
60345;BME280;46188;52.324;8.032;2022-11-03T01:26:16;100457.53;;;10.02;81.91
60345;BME280;46188;52.324;8.032;2022-11-03T01:28:43;100453.13;;;10.01;82.38
60345;BME280;46188;52.324;8.032;2022-11-03T01:33:39;100429.38;;;9.96;82.59
60345;BME280;46188;52.324;8.032;2022-11-03T01:36:05;100436.38;;;9.96;82.77
60345;BME280;46188;52.324;8.032;2022-11-03T01:38:32;100432.84;;;9.94;82.71
60345;BME280;46188;52.324;8.032;2022-11-03T01:40:59;100439.09;;;10.01;82.17
60345;BME280;46188;52.324;8.032;2022-11-03T01:43:25;100424.16;;;10.00;82.20
60345;BME280;46188;52.324;8.032;2022-11-03T01:46:41;100414.44;;;9.95;82.59
60345;BME280;46188;52.324;8.032;2022-11-03T01:48:47;100406.44;;;9.88;83.03
60345;BME280;46188;52.324;8.032;2022-11-03T01:51:16;100398.56;;;9.89;83.07
60345;BME280;46188;52.324;8.032;2022-11-03T01:53:46;100393.31;;;9.91;82.64
60345;BME280;46188;52.324;8.032;2022-11-03T01:56:14;100389.84;;;9.93;82.65
60345;BME280;46188;52.324;8.032;2022-11-03T01:58:41;100386.41;;;10.01;82.82
60345;BME280;46188;52.324;8.032;2022-11-03T02:01:09;100386.41;;;10.01;82.43
60345;BME280;46188;52.324;8.032;2022-11-03T02:03:40;100385.59;;;10.08;82.03
60345;BME280;46188;52.324;8.032;2022-11-03T02:06:07;100375.03;;;10.02;82.41
60345;BME280;46188;52.324;8.032;2022-11-03T02:08:39;100374.91;;;9.92;82.68
60345;BME280;46188;52.324;8.032;2022-11-03T02:11:06;100370.47;;;9.88;83.09
60345;BME280;46188;52.324;8.032;2022-11-03T02:13:50;100360.72;;;9.81;83.90
60345;BME280;46188;52.324;8.032;2022-11-03T02:16:16;100354.53;;;9.77;84.29
60345;BME280;46188;52.324;8.032;2022-11-03T02:18:46;100355.41;;;9.78;84.59
60345;BME280;46188;52.324;8.032;2022-11-03T02:21:41;100355.41;;;9.78;84.75
60345;BME280;46188;52.324;8.032;2022-11-03T02:24:26;100354.66;;;9.87;84.11
60345;BME280;46188;52.324;8.032;2022-11-03T02:26:56;100347.59;;;9.84;84.60
60345;BME280;46188;52.324;8.032;2022-11-03T02:29:21;100339.59;;;9.73;85.34
60345;BME280;46188;52.324;8.032;2022-11-03T02:32:03;100345.84;;;9.83;85.05
60345;BME280;46188;52.324;8.032;2022-11-03T02:37:15;100344.09;;;9.85;85.53
60345;BME280;46188;52.324;8.032;2022-11-03T02:39:53;100332.69;;;9.83;85.62
60345;BME280;46188;52.324;8.032;2022-11-03T02:42:22;100338.88;;;9.88;85.42
60345;BME280;46188;52.324;8.032;2022-11-03T02:44:50;100332.78;;;9.92;85.53
60345;BME280;46188;52.324;8.032;2022-11-03T02:47:16;100322.16;;;9.83;86.27
60345;BME280;46188;52.324;8.032;2022-11-03T02:49:47;100328.34;;;9.87;85.96
60345;BME280;46188;52.324;8.032;2022-11-03T02:52:48;100318.66;;;9.86;86.50
60345;BME280;46188;52.324;8.032;2022-11-03T03:00:25;100304.63;;;9.85;86.83
60345;BME280;46188;52.324;8.032;2022-11-03T03:03:01;100300.06;;;9.72;87.34
60345;BME280;46188;52.324;8.032;2022-11-03T03:05:32;100296.56;;;9.70;87.92
60345;BME280;46188;52.324;8.032;2022-11-03T03:08:08;100295.75;;;9.78;87.82
60345;BME280;46188;52.324;8.032;2022-11-03T03:10:45;100290.53;;;9.82;87.71
60345;BME280;46188;52.324;8.032;2022-11-03T03:13:16;100282.53;;;9.74;87.69
60345;BME280;46188;52.324;8.032;2022-11-03T03:16:17;100291.28;;;9.73;88.18
60345;BME280;46188;52.324;8.032;2022-11-03T03:18:54;100283.41;;;9.73;88.50
60345;BME280;46188;52.324;8.032;2022-11-03T03:21:30;100273.66;;;9.64;88.80
60345;BME280;46188;52.324;8.032;2022-11-03T03:24:00;100293.03;;;9.71;88.95
60345;BME280;46188;52.324;8.032;2022-11-03T03:26:32;100281.66;;;9.72;88.45
60345;BME280;46188;52.324;8.032;2022-11-03T03:29:01;100286.00;;;9.68;89.14
60345;BME280;46188;52.324;8.032;2022-11-03T03:31:33;100278.13;;;9.70;89.07
60345;BME280;46188;52.324;8.032;2022-11-03T03:34:01;100275.44;;;9.67;89.96
60345;BME280;46188;52.324;8.032;2022-11-03T03:36:28;100279.78;;;9.65;90.25
60345;BME280;46188;52.324;8.032;2022-11-03T03:38:57;100271.06;;;9.67;90.35
60345;BME280;46188;52.324;8.032;2022-11-03T03:41:27;100267.59;;;9.70;90.05
60345;BME280;46188;52.324;8.032;2022-11-03T03:44:01;100271.06;;;9.67;90.77
60345;BME280;46188;52.324;8.032;2022-11-03T03:46:40;100271.09;;;9.69;90.69
60345;BME280;46188;52.324;8.032;2022-11-03T03:49:07;100263.19;;;9.69;90.99
60345;BME280;46188;52.324;8.032;2022-11-03T03:51:36;100264.97;;;9.73;90.66
60345;BME280;46188;52.324;8.032;2022-11-03T03:54:02;100271.97;;;9.69;91.29
60345;BME280;46188;52.324;8.032;2022-11-03T03:56:42;100267.59;;;9.70;92.00
60345;BME280;46188;52.324;8.032;2022-11-03T03:59:10;100263.22;;;9.72;91.68
60345;BME280;46188;52.324;8.032;2022-11-03T04:01:35;100257.91;;;9.69;92.16
60345;BME280;46188;52.324;8.032;2022-11-03T04:04:01;100253.50;;;9.68;92.06
60345;BME280;46188;52.324;8.032;2022-11-03T04:06:26;100246.53;;;9.71;91.91
60345;BME280;46188;52.324;8.032;2022-11-03T04:08:52;100250.00;;;9.66;92.74
60345;BME280;46188;52.324;8.032;2022-11-03T04:11:17;100247.25;;;9.56;93.71
60345;BME280;46188;52.324;8.032;2022-11-03T04:14:01;100248.97;;;9.53;94.49
60345;BME280;46188;52.324;8.032;2022-11-03T04:16:44;100240.22;;;9.55;94.67
60345;BME280;46188;52.324;8.032;2022-11-03T04:19:28;100245.50;;;9.55;95.62
60345;BME280;46188;52.324;8.032;2022-11-03T04:22:13;100230.72;;;9.67;94.77
60345;BME280;46188;52.324;8.032;2022-11-03T04:24:43;100225.38;;;9.60;95.60
60345;BME280;46188;52.324;8.032;2022-11-03T04:29:44;100223.66;;;9.64;95.22
60345;BME280;46188;52.324;8.032;2022-11-03T04:32:17;100216.59;;;9.63;95.82
60345;BME280;46188;52.324;8.032;2022-11-03T04:34:47;100218.38;;;9.64;96.08
60345;BME280;46188;52.324;8.032;2022-11-03T04:37:13;100213.09;;;9.61;96.97
60345;BME280;46188;52.324;8.032;2022-11-03T04:39:39;100213.22;;;9.73;96.35
60345;BME280;46188;52.324;8.032;2022-11-03T04:42:20;100200.84;;;9.65;97.60
60345;BME280;46188;52.324;8.032;2022-11-03T04:44:48;100208.84;;;9.75;96.88
60345;BME280;46188;52.324;8.032;2022-11-03T04:47:15;100206.22;;;9.75;96.84
60345;BME280;46188;52.324;8.032;2022-11-03T04:49:42;100206.22;;;9.75;97.58
60345;BME280;46188;52.324;8.032;2022-11-03T04:52:14;100195.69;;;9.75;97.70
60345;BME280;46188;52.324;8.032;2022-11-03T04:54:41;100198.41;;;9.83;97.31
60345;BME280;46188;52.324;8.032;2022-11-03T04:57:11;100193.13;;;9.80;98.21
60345;BME280;46188;52.324;8.032;2022-11-03T04:59:39;100191.34;;;9.81;97.71
60345;BME280;46188;52.324;8.032;2022-11-03T05:02:12;100186.97;;;9.83;98.23
60345;BME280;46188;52.324;8.032;2022-11-03T05:04:38;100185.28;;;9.85;98.32
60345;BME280;46188;52.324;8.032;2022-11-03T05:07:17;100179.09;;;9.84;98.63
60345;BME280;46188;52.324;8.032;2022-11-03T05:09:44;100168.56;;;9.84;98.79
60345;BME280;46188;52.324;8.032;2022-11-03T05:12:12;100172.09;;;9.86;98.60
60345;BME280;46188;52.324;8.032;2022-11-03T05:14:37;100166.81;;;9.83;99.07
60345;BME280;46188;52.324;8.032;2022-11-03T05:17:17;100165.09;;;9.88;99.01
60345;BME280;46188;52.324;8.032;2022-11-03T05:19:45;100161.59;;;9.91;99.04
60345;BME280;46188;52.324;8.032;2022-11-03T05:22:14;100153.78;;;9.98;99.20
60345;BME280;46188;52.324;8.032;2022-11-03T05:24:42;100159.09;;;10.08;98.65
60345;BME280;46188;52.324;8.032;2022-11-03T05:27:19;100153.84;;;10.08;98.55
60345;BME280;46188;52.324;8.032;2022-11-03T05:29:46;100161.78;;;10.14;98.01
60345;BME280;46188;52.324;8.032;2022-11-03T05:32:18;100154.78;;;10.13;98.30
60345;BME280;46188;52.324;8.032;2022-11-03T05:34:46;100139.88;;;10.18;98.06
60345;BME280;46188;52.324;8.032;2022-11-03T05:39:56;100144.25;;;10.16;98.20
60345;BME280;46188;52.324;8.032;2022-11-03T05:42:41;100138.97;;;10.13;98.01
60345;BME280;46188;52.324;8.032;2022-11-03T05:45:21;100139.91;;;10.20;98.06
60345;BME280;46188;52.324;8.032;2022-11-03T05:47:47;100131.13;;;10.22;97.72
60345;BME280;46188;52.324;8.032;2022-11-03T05:50:25;100118.88;;;10.30;97.10
60345;BME280;46188;52.324;8.032;2022-11-03T05:52:55;100120.63;;;10.28;96.91
60345;BME280;46188;52.324;8.032;2022-11-03T05:55:27;100118.03;;;10.31;97.02
60345;BME280;46188;52.324;8.032;2022-11-03T05:57:58;100113.66;;;10.32;96.93
60345;BME280;46188;52.324;8.032;2022-11-03T06:00:35;100114.56;;;10.39;96.31
60345;BME280;46188;52.324;8.032;2022-11-03T06:03:02;100111.06;;;10.37;96.47
60345;BME280;46188;52.324;8.032;2022-11-03T06:05:30;100111.06;;;10.37;96.00
60345;BME280;46188;52.324;8.032;2022-11-03T06:07:58;100110.16;;;10.38;96.11
60345;BME280;46188;52.324;8.032;2022-11-03T06:10:30;100108.44;;;10.38;96.00
60345;BME280;46188;52.324;8.032;2022-11-03T06:13:04;100109.38;;;10.48;95.38
60345;BME280;46188;52.324;8.032;2022-11-03T06:15:34;100112.88;;;10.50;95.03
60345;BME280;46188;52.324;8.032;2022-11-03T06:18:12;100117.31;;;10.51;95.02
60345;BME280;46188;52.324;8.032;2022-11-03T06:20:38;100116.44;;;10.55;94.81
60345;BME280;46188;52.324;8.032;2022-11-03T16:31:49;99132.47;;;11.97;87.66
60345;BME280;46188;52.324;8.032;2022-11-03T16:34:16;99129.44;;;12.22;87.27
60345;BME280;46188;52.324;8.032;2022-11-03T16:36:41;99140.53;;;12.41;85.81
60345;BME280;46188;52.324;8.032;2022-11-03T16:39:07;99146.44;;;12.55;84.24
60345;BME280;46188;52.324;8.032;2022-11-03T16:41:35;99151.44;;;12.71;84.27
60345;BME280;46188;52.324;8.032;2022-11-03T16:44:00;99156.56;;;12.80;83.57
60345;BME280;46188;52.324;8.032;2022-11-03T16:46:25;99143.63;;;12.66;85.42
60345;BME280;46188;52.324;8.032;2022-11-03T16:48:51;99143.91;;;12.49;86.92
60345;BME280;46188;52.324;8.032;2022-11-03T16:51:16;99130.81;;;12.43;88.52
60345;BME280;46188;52.324;8.032;2022-11-03T16:53:42;99134.38;;;12.41;88.99
60345;BME280;46188;52.324;8.032;2022-11-03T16:56:07;99130.09;;;12.35;89.84
60345;BME280;46188;52.324;8.032;2022-11-03T16:58:33;99126.53;;;12.36;90.25
60345;BME280;46188;52.324;8.032;2022-11-03T17:00:58;99117.75;;;12.34;90.64
60345;BME280;46188;52.324;8.032;2022-11-03T17:03:24;99115.41;;;12.18;92.46
60345;BME280;46188;52.324;8.032;2022-11-03T17:05:49;99117.06;;;12.23;92.01
60345;BME280;46188;52.324;8.032;2022-11-03T17:08:15;99103.88;;;12.23;91.97
60345;BME280;46188;52.324;8.032;2022-11-03T17:10:40;99109.06;;;12.29;91.73
60345;BME280;46188;52.324;8.032;2022-11-03T17:13:05;99100.28;;;12.27;91.50
60345;BME280;46188;52.324;8.032;2022-11-03T17:15:31;99097.69;;;12.24;91.22
60345;BME280;46188;52.324;8.032;2022-11-03T17:17:56;99084.38;;;12.30;91.21
60345;BME280;46188;52.324;8.032;2022-11-03T17:20:22;99096.72;;;12.28;91.32
60345;BME280;46188;52.324;8.032;2022-11-03T17:22:47;99085.28;;;12.29;91.27
60345;BME280;46188;52.324;8.032;2022-11-03T17:25:12;99083.47;;;12.31;91.57
60345;BME280;46188;52.324;8.032;2022-11-03T17:27:55;99085.44;;;12.18;93.35
60345;BME280;46188;52.324;8.032;2022-11-03T17:30:23;99077.69;;;12.10;94.73
60345;BME280;46188;52.324;8.032;2022-11-03T17:32:51;99081.22;;;12.08;95.40
60345;BME280;46188;52.324;8.032;2022-11-03T17:35:40;99080.50;;;11.99;96.90
60345;BME280;46188;52.324;8.032;2022-11-03T17:38:10;99065.53;;;12.00;97.51
60345;BME280;46188;52.324;8.032;2022-11-03T17:40:39;99067.41;;;11.93;98.70
60345;BME280;46188;52.324;8.032;2022-11-03T17:43:14;99069.16;;;11.93;99.42
60345;BME280;46188;52.324;8.032;2022-11-03T17:45:41;99068.28;;;11.91;99.84
60345;BME280;46188;52.324;8.032;2022-11-03T17:48:06;99064.03;;;11.84;100.00
60345;BME280;46188;52.324;8.032;2022-11-03T17:50:33;99062.28;;;11.81;100.00
60345;BME280;46188;52.324;8.032;2022-11-03T17:53:00;99057.06;;;11.78;100.00
60345;BME280;46188;52.324;8.032;2022-11-03T17:55:27;99055.19;;;11.85;100.00
60345;BME280;46188;52.324;8.032;2022-11-03T17:57:55;99047.25;;;11.85;100.00
60345;BME280;46188;52.324;8.032;2022-11-03T18:00:22;99041.19;;;11.79;100.00
60345;BME280;46188;52.324;8.032;2022-11-03T18:02:49;99043.91;;;11.75;100.00
60345;BME280;46188;52.324;8.032;2022-11-03T18:07:51;99042.25;;;11.69;100.00
60345;BME280;46188;52.324;8.032;2022-11-03T18:10:17;99032.59;;;11.67;100.00
60345;BME280;46188;52.324;8.032;2022-11-03T18:12:44;99028.25;;;11.64;100.00
60345;BME280;46188;52.324;8.032;2022-11-03T18:15:31;99028.31;;;11.61;100.00
60345;BME280;46188;52.324;8.032;2022-11-03T18:17:58;99022.13;;;11.62;100.00
60345;BME280;46188;52.324;8.032;2022-11-03T18:20:26;99027.47;;;11.59;100.00
60345;BME280;46188;52.324;8.032;2022-11-03T18:23:14;99026.56;;;11.60;100.00
60345;BME280;46188;52.324;8.032;2022-11-03T18:25:40;99021.28;;;11.58;100.00
60345;BME280;46188;52.324;8.032;2022-11-03T18:28:05;99021.47;;;11.49;100.00
60345;BME280;46188;52.324;8.032;2022-11-03T18:30:31;99017.03;;;11.50;100.00
60345;BME280;46188;52.324;8.032;2022-11-03T18:32:56;99012.78;;;11.42;100.00
60345;BME280;46188;52.324;8.032;2022-11-03T18:35:24;99012.78;;;11.41;100.00
60345;BME280;46188;52.324;8.032;2022-11-03T18:37:52;99002.34;;;11.33;100.00
60345;BME280;46188;52.324;8.032;2022-11-03T18:40:19;99005.00;;;11.33;100.00
60345;BME280;46188;52.324;8.032;2022-11-03T18:42:45;98998.09;;;11.26;100.00
60345;BME280;46188;52.324;8.032;2022-11-03T18:45:13;98996.31;;;11.25;100.00
60345;BME280;46188;52.324;8.032;2022-11-03T18:47:38;98985.00;;;11.18;100.00
60345;BME280;46188;52.324;8.032;2022-11-03T18:50:06;98985.03;;;11.15;100.00
60345;BME280;46188;52.324;8.032;2022-11-03T18:52:35;98982.41;;;11.15;100.00
60345;BME280;46188;52.324;8.032;2022-11-03T18:55:04;98981.53;;;11.16;100.00
60345;BME280;46188;52.324;8.032;2022-11-03T18:57:30;98976.19;;;11.21;100.00
60345;BME280;46188;52.324;8.032;2022-11-03T18:59:55;98976.19;;;11.21;100.00
60345;BME280;46188;52.324;8.032;2022-11-03T19:02:22;98965.66;;;11.19;100.00
60345;BME280;46188;52.324;8.032;2022-11-03T19:04:49;98963.06;;;11.15;100.00
60345;BME280;46188;52.324;8.032;2022-11-03T19:07:21;98952.53;;;11.15;100.00
60345;BME280;46188;52.324;8.032;2022-11-03T19:09:48;98958.66;;;11.15;100.00
60345;BME280;46188;52.324;8.032;2022-11-03T19:12:14;98951.66;;;11.14;100.00
60345;BME280;46188;52.324;8.032;2022-11-03T19:14:41;98942.84;;;11.15;100.00
60345;BME280;46188;52.324;8.032;2022-11-03T19:17:15;98942.88;;;11.14;100.00
60345;BME280;46188;52.324;8.032;2022-11-03T19:19:45;98935.97;;;11.05;100.00
60345;BME280;46188;52.324;8.032;2022-11-03T19:22:16;98933.34;;;11.05;100.00
60345;BME280;46188;52.324;8.032;2022-11-03T19:24:42;98931.53;;;11.08;100.00
60345;BME280;46188;52.324;8.032;2022-11-03T19:27:25;98931.56;;;11.05;100.00
60345;BME280;46188;52.324;8.032;2022-11-03T19:29:51;98917.53;;;11.03;100.00
60345;BME280;46188;52.324;8.032;2022-11-03T19:32:24;98907.84;;;11.05;100.00
60345;BME280;46188;52.324;8.032;2022-11-03T19:35:16;98899.09;;;11.03;100.00
60345;BME280;46188;52.324;8.032;2022-11-03T19:37:42;98900.78;;;11.07;100.00
60345;BME280;46188;52.324;8.032;2022-11-03T19:40:12;98901.66;;;11.08;100.00
60345;BME280;46188;52.324;8.032;2022-11-03T19:42:38;98895.44;;;11.12;100.00
60345;BME280;46188;52.324;8.032;2022-11-03T19:45:11;98893.66;;;11.13;100.00
60345;BME280;46188;52.324;8.032;2022-11-03T19:47:39;98893.72;;;11.10;100.00
60345;BME280;46188;52.324;8.032;2022-11-03T19:50:17;98889.38;;;11.05;100.00
60345;BME280;46188;52.324;8.032;2022-11-03T19:52:46;98894.66;;;11.05;100.00
60345;BME280;46188;52.324;8.032;2022-11-03T19:55:13;98898.09;;;11.11;100.00
60345;BME280;46188;52.324;8.032;2022-11-03T19:57:39;98891.91;;;11.13;100.00
60345;BME280;46188;52.324;8.032;2022-11-03T20:00:09;98891.06;;;11.10;100.00
60345;BME280;46188;52.324;8.032;2022-11-03T20:02:40;98893.84;;;11.02;100.00
60345;BME280;46188;52.324;8.032;2022-11-03T20:05:05;98887.75;;;10.98;100.00
60345;BME280;46188;52.324;8.032;2022-11-03T20:07:31;98878.94;;;11.01;100.00
60345;BME280;46188;52.324;8.032;2022-11-03T20:09:57;98887.59;;;11.07;100.00
60345;BME280;46188;52.324;8.032;2022-11-03T20:12:23;98880.44;;;11.16;100.00
60345;BME280;46188;52.324;8.032;2022-11-03T20:14:48;98888.41;;;11.13;100.00
60345;BME280;46188;52.324;8.032;2022-11-03T20:17:16;98891.06;;;11.10;100.00
60345;BME280;46188;52.324;8.032;2022-11-03T20:19:42;98893.59;;;11.17;100.00
60345;BME280;46188;52.324;8.032;2022-11-03T20:22:16;98891.75;;;11.22;100.00
60345;BME280;46188;52.324;8.032;2022-11-03T20:24:46;98903.16;;;11.23;100.00
60345;BME280;46188;52.324;8.032;2022-11-03T20:27:14;98898.72;;;11.25;100.00
60345;BME280;46188;52.324;8.032;2022-11-03T20:29:41;98898.72;;;11.25;100.00
60345;BME280;46188;52.324;8.032;2022-11-03T20:32:09;98890.81;;;11.25;100.00
60345;BME280;46188;52.324;8.032;2022-11-03T20:34:36;98896.97;;;11.27;100.00
60345;BME280;46188;52.324;8.032;2022-11-03T20:37:01;98889.97;;;11.23;100.00
60345;BME280;46188;52.324;8.032;2022-11-03T20:39:27;98891.69;;;11.25;100.00
60345;BME280;46188;52.324;8.032;2022-11-03T20:41:52;98885.41;;;11.33;100.00
60345;BME280;46188;52.324;8.032;2022-11-03T20:44:20;98884.59;;;11.29;100.00
60345;BME280;46188;52.324;8.032;2022-11-03T20:46:46;98889.13;;;11.21;100.00
60345;BME280;46188;52.324;8.032;2022-11-03T20:49:11;98884.78;;;11.18;100.00
60345;BME280;46188;52.324;8.032;2022-11-03T20:51:41;98884.00;;;11.12;100.00
60345;BME280;46188;52.324;8.032;2022-11-03T20:54:15;98887.47;;;11.14;100.00
60345;BME280;46188;52.324;8.032;2022-11-03T20:56:43;98890.97;;;11.17;100.00
60345;BME280;46188;52.324;8.032;2022-11-03T20:59:12;98887.47;;;11.15;100.00
60345;BME280;46188;52.324;8.032;2022-11-03T21:01:39;98890.13;;;11.14;100.00
60345;BME280;46188;52.324;8.032;2022-11-03T21:04:05;98883.13;;;11.13;100.00
60345;BME280;46188;52.324;8.032;2022-11-03T21:06:37;98886.72;;;11.07;100.00
60345;BME280;46188;52.324;8.032;2022-11-03T21:09:03;98890.38;;;10.98;100.00
60345;BME280;46188;52.324;8.032;2022-11-03T21:11:33;98879.75;;;11.04;100.00
60345;BME280;46188;52.324;8.032;2022-11-03T21:14:06;98871.88;;;11.01;100.00
60345;BME280;46188;52.324;8.032;2022-11-03T21:16:32;98871.91;;;11.00;100.00
60345;BME280;46188;52.324;8.032;2022-11-03T21:19:25;98872.63;;;11.10;100.00
60345;BME280;46188;52.324;8.032;2022-11-03T21:22:18;98861.09;;;11.14;100.00
60345;BME280;46188;52.324;8.032;2022-11-03T21:24:44;98855.03;;;11.08;100.00
60345;BME280;46188;52.324;8.032;2022-11-03T21:27:11;98859.66;;;10.97;100.00
60345;BME280;46188;52.324;8.032;2022-11-03T21:29:37;98843.84;;;10.96;100.00
60345;BME280;46188;52.324;8.032;2022-11-03T21:32:03;98851.78;;;10.96;100.00
60345;BME280;46188;52.324;8.032;2022-11-03T21:34:29;98849.91;;;11.01;100.00
60345;BME280;46188;52.324;8.032;2022-11-03T21:36:55;98848.19;;;10.98;100.00
60345;BME280;46188;52.324;8.032;2022-11-03T21:39:20;98853.41;;;11.03;100.00
60345;BME280;46188;52.324;8.032;2022-11-03T21:41:46;98854.44;;;10.94;100.00
60345;BME280;46188;52.324;8.032;2022-11-03T21:44:30;98852.59;;;10.98;100.00
60345;BME280;46188;52.324;8.032;2022-11-03T21:46:55;98848.16;;;11.00;100.00
60345;BME280;46188;52.324;8.032;2022-11-03T21:49:20;98847.31;;;10.99;100.00
60345;BME280;46188;52.324;8.032;2022-11-03T21:52:04;98849.16;;;10.94;100.00
60345;BME280;46188;52.324;8.032;2022-11-03T21:54:30;98837.69;;;10.95;100.00
60345;BME280;46188;52.324;8.032;2022-11-03T21:56:55;98837.56;;;11.04;100.00
60345;BME280;46188;52.324;8.032;2022-11-03T21:59:20;98841.88;;;11.07;100.00
60345;BME280;46188;52.324;8.032;2022-11-03T22:01:46;98846.34;;;11.03;100.00
60345;BME280;46188;52.324;8.032;2022-11-03T22:04:13;98833.94;;;11.08;100.00
60345;BME280;46188;52.324;8.032;2022-11-03T22:06:38;98823.44;;;11.05;100.00
60345;BME280;46188;52.324;8.032;2022-11-03T22:09:04;98820.09;;;10.97;100.00
60345;BME280;46188;52.324;8.032;2022-11-03T22:11:29;98823.56;;;11.01;100.00
60345;BME280;46188;52.324;8.032;2022-11-03T22:13:59;98827.00;;;11.04;100.00
60345;BME280;46188;52.324;8.032;2022-11-03T22:16:26;98830.44;;;11.08;100.00
60345;BME280;46188;52.324;8.032;2022-11-03T22:19:12;98826.19;;;11.01;100.00
60345;BME280;46188;52.324;8.032;2022-11-03T22:21:58;98832.44;;;10.94;100.00
60345;BME280;46188;52.324;8.032;2022-11-03T22:24:42;98835.03;;;10.97;100.00
60345;BME280;46188;52.324;8.032;2022-11-03T22:27:27;98836.59;;;11.08;100.00
60345;BME280;46188;52.324;8.032;2022-11-03T22:29:53;98820.03;;;11.00;100.00
60345;BME280;46188;52.324;8.032;2022-11-03T22:32:38;98822.78;;;10.94;100.00
60345;BME280;46188;52.324;8.032;2022-11-03T22:35:05;98834.13;;;10.99;100.00
60345;BME280;46188;52.324;8.032;2022-11-03T22:40:30;98822.50;;;11.10;100.00
60345;BME280;46188;52.324;8.032;2022-11-03T22:43:15;98827.91;;;11.02;100.00
60345;BME280;46188;52.324;8.032;2022-11-03T22:45:59;98826.94;;;11.09;100.00
60345;BME280;46188;52.324;8.032;2022-11-03T22:48:25;98825.06;;;11.16;100.00
60345;BME280;46188;52.324;8.032;2022-11-03T22:50:59;98830.34;;;11.14;100.00
60345;BME280;46188;52.324;8.032;2022-11-03T22:53:25;98826.78;;;11.17;100.00
60345;BME280;46188;52.324;8.032;2022-11-03T22:56:09;98818.84;;;11.18;100.00
60345;BME280;46188;52.324;8.032;2022-11-03T22:58:34;98817.94;;;11.19;100.00
60345;BME280;46188;52.324;8.032;2022-11-03T23:01:11;98819.66;;;11.20;100.00
60345;BME280;46188;52.324;8.032;2022-11-03T23:03:38;98833.78;;;11.19;100.00
60345;BME280;46188;52.324;8.032;2022-11-03T23:06:06;98836.41;;;11.19;100.00
60345;BME280;46188;52.324;8.032;2022-11-03T23:08:33;98842.50;;;11.23;100.00
60345;BME280;46188;52.324;8.032;2022-11-03T23:13:29;98846.94;;;11.21;100.00
60345;BME280;46188;52.324;8.032;2022-11-03T23:15:54;98845.09;;;11.24;100.00
60345;BME280;46188;52.324;8.032;2022-11-03T23:18:19;98814.47;;;11.17;100.00
60345;BME280;46188;52.324;8.032;2022-11-03T23:21:04;98803.16;;;11.12;100.00
60345;BME280;46188;52.324;8.032;2022-11-03T23:23:37;98823.28;;;11.16;100.00
60345;BME280;46188;52.324;8.032;2022-11-03T23:26:22;98819.84;;;11.11;100.00
60345;BME280;46188;52.324;8.032;2022-11-03T23:28:48;98826.06;;;11.07;100.00
60345;BME280;46188;52.324;8.032;2022-11-03T23:31:14;98827.75;;;11.13;100.00
60345;BME280;46188;52.324;8.032;2022-11-03T23:33:40;98819.03;;;11.09;100.00
60345;BME280;46188;52.324;8.032;2022-11-03T23:36:07;98811.09;;;11.11;100.00
60345;BME280;46188;52.324;8.032;2022-11-03T23:38:34;98818.19;;;11.05;100.00
60345;BME280;46188;52.324;8.032;2022-11-03T23:41:04;98810.16;;;11.12;100.00